首页
METAR-TAF:

METAR-TAF

机场 :

班吉-姆波科国际机场

班基, 中非共和国

纬度: 04-24N, 经度: 018-31E, 海拔: 365米

当前天气观测

该预报发布于1小时和17分钟前的17:00 UTC
风速4节,风向东转东北
温度 27°C
湿度 84%
气压 1010 hPa
能见度10公里或以上
少量云层高于1600英尺
少量云层高于3300英尺, 积雨云.
雷暴

METAR: FEFF 151700Z 07004KT 9999 TS FEW016 FEW033CB 27/24 Q1010 BECMG NSW

时间: 19:17 (18:17 UTC)

预报

该预报发布于1小时和17分钟前的17:00 UTC
预报有效从15日的 18点(UTC)到 16日的 24点(UTC)
风速3节,风向多变
能見度: 8000
多云层高于1300英尺
少量云层高于3300英尺, 积雨云.
雷暴
成为
从 15日的 18点(UTC)到 15日的 20点(UTC)
散云层高于1000英尺
短暂存在
从 16日的 03点(UTC)到 16日的 05点(UTC)
能見度: 3000
多云层高于400英尺
轻雾
从 16日的 0900点(UTC)
风速5节,风向南转西南
能见度10公里或以上
散云层高于2300英尺

TAF: FEFF 151700Z 1518/1624 VRB03KT 8000 TS BKN013 FEW033CB BECMG 1518/1520 NSW SCT010 TEMPO 1603/1605 3000 BR BKN004 FM160900 21005KT 9999 SCT023

超过4000个机场的气象观测和天气预报(METAR&TAF报告)。

可查询的气象台以黄色和红色小点在地图上表示。

将鼠标移到小点上方,可查看气象台名称。

然后点击查看天气观测和预报。

如需切换地图:点击带黑十字的绿色按钮放大地图;点击带横线的绿色按钮缩小地图;或者点击绿色箭头查看邻近地区的地图。


METAR-TAF: